YMER

Details ICAO YMER (MIM)
Name Merimbula
Region Australia
Timezone Australia/Sydney (UTC+10.0)
Plans Departing 19
Arriving 29
Stats Elevation 6 ft / 2 m (AMSL)
Location -36.906875° 149.901626°
Runways 1
Magnetic Variation 13.331° E
Sunrise 2018-05-24 21:00:36 UTC / 2018-05-25 07:00:36 Local
Sunset 2018-05-25 06:56:51 UTC / 2018-05-25 16:56:51 Local
Advertisement - Login to hide

Runways

ID Width Length Bearing (true) Bearing (mag) Surface Threshold Offset Overrun Length
03 98 ft / 30 m 5,252 ft / 1,601 m 33.80° 20.47° Asphalt 0 ft / 0 m 0 ft / 0 m
21 98 ft / 30 m 5,252 ft / 1,601 m 213.80° 200.47° Asphalt 0 ft / 0 m 0 ft / 0 m

Map

Weather


0- 5 10 15 20 25 30 35+ Temperature / ° C

Clouds and Precipitation
Forecast for 2018-05-24 12:00 UTC. Updated 3 hours ago

Ground ~20,000 ft ~40,000 ft Winds

METAR

YMER 241400Z AUTO 22003KT 9999 // SCT049 07/04 Q1028

TAF

Not found

Frequencies

Unicom 119.60 MHz ACTIVATE LIGHTS ONLY MULT
Unicom 126.70 MHz MERIMBULA MULT
Unicom 118.80 MHz MELBOURNE CENTRE MULT
Warning: Do not use this data for real-world aviation or navigation. No guarantee of current accuracy is given.